createdAt,value
2018-12-12T00:02:34.869Z,13.03
2018-12-12T00:05:38.711Z,13.07
2018-12-12T00:08:42.318Z,12.67
2018-12-12T00:11:46.976Z,14.40
2018-12-12T00:14:50.503Z,13.43
2018-12-12T00:17:54.129Z,13.50
2018-12-12T00:20:57.756Z,13.30
2018-12-12T00:24:01.554Z,13.30
2018-12-12T00:27:05.340Z,13.90
2018-12-12T00:30:08.912Z,13.47
2018-12-12T00:33:12.469Z,14.23
2018-12-12T00:36:16.175Z,13.97
2018-12-12T00:39:19.798Z,14.43
2018-12-12T00:42:23.429Z,14.43
2018-12-12T00:45:26.997Z,13.97
2018-12-12T00:48:30.788Z,13.20
2018-12-12T00:51:34.383Z,13.97
2018-12-12T00:54:39.118Z,14.70
2018-12-12T00:57:43.768Z,13.73
2018-12-12T01:00:47.328Z,14.20
2018-12-12T01:03:51.007Z,13.80
2018-12-12T01:06:54.631Z,13.47
2018-12-12T01:09:59.299Z,14.43
2018-12-12T01:13:03.084Z,15.10
2018-12-12T01:16:06.677Z,13.53
2018-12-12T01:19:10.334Z,13.57
2018-12-12T01:22:13.938Z,14.07
2018-12-12T01:25:17.485Z,14.33
2018-12-12T01:28:20.967Z,13.93
2018-12-12T01:31:24.597Z,15.37
2018-12-12T01:34:28.470Z,14.30
2018-12-12T01:37:32.029Z,15.03
2018-12-12T01:40:35.661Z,14.37
2018-12-12T01:43:39.218Z,15.53
2018-12-12T01:46:43.857Z,14.33
2018-12-12T01:49:47.445Z,14.97
2018-12-12T01:52:51.027Z,14.80
2018-12-12T01:55:55.860Z,14.47
2018-12-12T01:58:59.462Z,13.63
2018-12-12T02:02:03.087Z,15.20
2018-12-12T02:05:06.702Z,14.03
2018-12-12T02:08:10.272Z,14.10
2018-12-12T02:11:13.986Z,15.67
2018-12-12T02:14:17.717Z,14.33
2018-12-12T02:17:21.404Z,14.40
2018-12-12T02:20:25.062Z,14.50
2018-12-12T02:23:28.729Z,14.80
2018-12-12T02:26:32.575Z,14.07
2018-12-12T02:29:36.227Z,14.93
2018-12-12T02:32:39.821Z,14.00
2018-12-12T02:35:43.519Z,15.37
2018-12-12T02:38:47.137Z,14.43
2018-12-12T02:41:50.699Z,16.10
2018-12-12T02:44:54.306Z,14.87
2018-12-12T02:47:57.939Z,14.77
2018-12-12T02:51:02.650Z,14.23
2018-12-12T02:54:06.331Z,14.13
2018-12-12T02:57:11.042Z,14.50
2018-12-12T03:00:14.674Z,15.77
2018-12-12T03:03:18.242Z,15.13
2018-12-12T03:06:21.788Z,14.40
2018-12-12T03:09:25.375Z,15.33
2018-12-12T03:12:29.192Z,15.80
2018-12-12T03:15:32.810Z,14.93
2018-12-12T03:18:36.397Z,14.93
2018-12-12T03:21:40.049Z,13.83
2018-12-12T03:24:43.554Z,14.63
2018-12-12T03:27:47.163Z,15.07
2018-12-12T03:30:50.788Z,15.30
2018-12-12T03:33:54.324Z,14.60
2018-12-12T03:36:57.895Z,14.77
2018-12-12T03:40:02.614Z,14.77
2018-12-12T03:43:06.265Z,15.37
2018-12-12T03:46:09.860Z,16.03
2018-12-12T03:49:13.831Z,15.23
2018-12-12T03:52:17.383Z,15.77
2018-12-12T03:55:21.050Z,16.27
2018-12-12T03:58:24.655Z,15.27
2018-12-12T04:01:28.602Z,15.77
2018-12-12T04:04:32.286Z,15.97
2018-12-12T04:07:36.207Z,14.83
2018-12-12T04:10:39.814Z,15.80
2018-12-12T04:13:43.317Z,14.70
2018-12-12T04:16:47.007Z,15.37
2018-12-12T04:19:50.518Z,14.70
2018-12-12T04:22:54.103Z,14.73
2018-12-12T04:25:57.794Z,15.50
2018-12-12T04:29:01.279Z,16.10
2018-12-12T04:32:05.133Z,15.57
2018-12-12T04:35:08.872Z,16.37
2018-12-12T04:38:12.685Z,16.70
2018-12-12T04:41:16.392Z,16.17
2018-12-12T04:44:19.897Z,16.60
2018-12-12T04:47:23.424Z,16.17
2018-12-12T04:50:27.003Z,15.80
2018-12-12T04:53:30.560Z,16.97
2018-12-12T04:56:34.670Z,16.53
2018-12-12T04:59:38.705Z,16.73
2018-12-12T05:02:42.252Z,16.67
2018-12-12T05:05:46.270Z,16.37
2018-12-12T05:08:49.780Z,16.73
2018-12-12T05:11:53.382Z,16.13
2018-12-12T05:14:57.275Z,15.67
2018-12-12T05:18:00.927Z,15.37
2018-12-12T05:21:04.536Z,14.97
2018-12-12T05:24:08.199Z,15.87
2018-12-12T05:27:11.705Z,15.73
2018-12-12T05:30:15.262Z,16.23
2018-12-12T05:33:18.698Z,15.53
2018-12-12T05:36:22.213Z,16.47
2018-12-12T05:39:26.276Z,16.47
2018-12-12T05:42:30.236Z,16.57
2018-12-12T05:45:33.834Z,19.50
2018-12-12T05:48:37.231Z,15.67
2018-12-12T05:51:41.133Z,15.07
2018-12-12T05:54:44.645Z,15.13
2018-12-12T05:57:48.109Z,16.00
2018-12-12T06:00:51.648Z,16.33
2018-12-12T06:03:55.034Z,15.60
2018-12-12T06:06:58.445Z,15.57
2018-12-12T06:10:01.850Z,16.17
2018-12-12T06:13:05.563Z,16.50
2018-12-12T06:16:08.956Z,15.93
2018-12-12T06:19:12.357Z,15.77
2018-12-12T06:22:23.518Z,16.40
2018-12-12T06:25:26.943Z,15.10
2018-12-12T06:28:30.307Z,15.63
2018-12-12T06:31:34.133Z,15.00
2018-12-12T06:34:37.657Z,15.60
2018-12-12T06:37:41.172Z,15.50
2018-12-12T06:40:44.604Z,16.40
2018-12-12T06:43:48.450Z,15.97
2018-12-12T06:46:51.987Z,16.83
2018-12-12T06:49:55.487Z,16.40
2018-12-12T06:52:58.944Z,15.83
2018-12-12T06:56:02.641Z,15.40
2018-12-12T06:59:06.170Z,15.73
2018-12-12T07:02:09.733Z,16.67
2018-12-12T07:05:13.298Z,16.70
2018-12-12T07:08:16.671Z,15.77
2018-12-12T07:11:20.161Z,15.43
2018-12-12T07:14:23.623Z,16.53
2018-12-12T07:17:27.237Z,16.53
2018-12-12T07:20:30.613Z,16.10
2018-12-12T07:23:34.207Z,16.47
2018-12-12T07:26:37.683Z,15.80
2018-12-12T07:29:41.220Z,16.70
2018-12-12T07:32:44.723Z,16.87
2018-12-12T07:35:48.457Z,16.23
2018-12-12T07:38:51.914Z,16.57
2018-12-12T07:41:55.419Z,15.70
2018-12-12T07:44:59.019Z,15.60
2018-12-12T07:48:02.508Z,15.33
2018-12-12T07:51:06.108Z,16.97
2018-12-12T07:54:09.868Z,16.93
2018-12-12T07:57:13.388Z,16.80
2018-12-12T08:00:16.899Z,17.90
2018-12-12T08:03:20.601Z,18.47
2018-12-12T08:06:24.070Z,18.87
2018-12-12T08:09:27.617Z,17.70
2018-12-12T08:12:31.327Z,18.03
2018-12-12T08:15:34.883Z,18.07
2018-12-12T08:18:38.690Z,18.00
2018-12-12T08:21:42.120Z,16.80
2018-12-12T08:24:45.615Z,17.67
2018-12-12T08:27:49.443Z,18.00
2018-12-12T08:30:53.061Z,17.50
2018-12-12T08:33:56.613Z,18.00
2018-12-12T08:37:00.108Z,17.23
2018-12-12T08:40:05.314Z,16.77
2018-12-12T08:43:09.296Z,17.03
2018-12-12T08:46:12.734Z,18.40
2018-12-12T08:49:16.446Z,17.37
2018-12-12T08:52:20.145Z,17.13
2018-12-12T08:55:24.073Z,17.23
2018-12-12T08:58:28.843Z,18.03
2018-12-12T09:01:32.405Z,16.63
2018-12-12T09:04:35.999Z,16.77
2018-12-12T09:07:39.414Z,17.40
2018-12-12T09:10:46.418Z,18.03
2018-12-12T09:13:50.088Z,17.93
2018-12-12T09:16:53.915Z,17.73
2018-12-12T09:19:57.572Z,18.30
2018-12-12T09:23:01.098Z,17.73
2018-12-12T09:26:04.812Z,17.73
2018-12-12T09:29:08.416Z,18.80
2018-12-12T09:32:11.900Z,16.83
2018-12-12T09:35:16.495Z,18.53
2018-12-12T09:38:20.055Z,17.83
2018-12-12T09:41:23.650Z,16.90
2018-12-12T09:44:27.192Z,17.10
2018-12-12T09:47:31.019Z,19.13
2018-12-12T09:50:34.534Z,18.47
2018-12-12T09:53:38.100Z,17.27
2018-12-12T09:56:41.558Z,17.63
2018-12-12T09:59:45.048Z,18.57
2018-12-12T10:02:48.606Z,18.10
2018-12-12T10:05:52.395Z,18.87
2018-12-12T10:08:55.942Z,20.03
2018-12-12T10:11:59.836Z,20.13
2018-12-12T10:15:03.424Z,20.53
2018-12-12T10:18:07.042Z,20.07
2018-12-12T10:21:10.716Z,20.67
2018-12-12T10:24:14.434Z,20.53
2018-12-12T10:27:17.909Z,20.67
2018-12-12T10:30:21.386Z,21.50
2018-12-12T10:33:24.966Z,22.27
2018-12-12T10:36:29.529Z,21.03
2018-12-12T10:39:33.681Z,22.20
2018-12-12T10:42:37.150Z,22.70
2018-12-12T10:45:40.987Z,22.20
2018-12-12T10:48:44.578Z,23.57
2018-12-12T10:51:48.108Z,23.43
2018-12-12T10:54:51.614Z,25.13
2018-12-12T10:57:55.036Z,24.50
2018-12-12T11:01:03.946Z,23.73
2018-12-12T11:04:07.596Z,24.10
2018-12-12T11:07:11.216Z,23.37
2018-12-12T11:10:14.769Z,23.77
2018-12-12T11:13:18.465Z,23.30
2018-12-12T11:16:21.903Z,23.47
2018-12-12T11:19:25.501Z,24.00
2018-12-12T11:22:31.348Z,22.53
2018-12-12T11:25:34.747Z,23.07
2018-12-12T11:28:38.187Z,22.57
2018-12-12T11:31:41.583Z,21.77
2018-12-12T11:34:45.069Z,20.97
2018-12-12T11:37:48.793Z,21.30
2018-12-12T11:40:52.331Z,20.13
2018-12-12T11:43:55.950Z,19.83
2018-12-12T11:46:59.455Z,19.33
2018-12-12T11:50:03.263Z,19.73
2018-12-12T11:53:06.760Z,18.33
2018-12-12T11:56:11.351Z,19.57
2018-12-12T11:59:18.674Z,16.07
2018-12-12T12:02:22.298Z,17.63
2018-12-12T12:05:25.920Z,17.93
2018-12-12T12:08:29.589Z,18.77
2018-12-12T12:11:33.202Z,17.90
2018-12-12T12:14:36.771Z,17.30
2018-12-12T12:17:40.371Z,17.33
2018-12-12T12:20:44.014Z,18.17
2018-12-12T12:23:47.471Z,17.30
2018-12-12T12:26:51.122Z,17.13
2018-12-12T12:29:54.742Z,16.70
2018-12-12T12:32:58.238Z,16.93
2018-12-12T12:36:02.050Z,16.33
2018-12-12T12:39:08.357Z,17.43
2018-12-12T12:42:12.996Z,14.97
2018-12-12T12:45:16.617Z,16.47
2018-12-12T12:48:20.461Z,16.43
2018-12-12T12:51:24.047Z,16.43
2018-12-12T12:54:27.624Z,16.07
2018-12-12T12:57:31.270Z,15.67
2018-12-12T13:00:34.882Z,16.33
2018-12-12T13:03:38.753Z,16.10
2018-12-12T13:06:42.379Z,15.00
2018-12-12T13:09:45.967Z,15.20
2018-12-12T13:12:49.498Z,15.53
2018-12-12T13:15:53.128Z,13.93
2018-12-12T13:18:56.735Z,14.40
2018-12-12T13:22:00.415Z,13.77
2018-12-12T13:25:04.026Z,13.23
2018-12-12T13:28:07.491Z,13.87
2018-12-12T13:31:11.069Z,13.60
2018-12-12T13:34:16.415Z,13.53
2018-12-12T13:37:18.290Z,14.70
2018-12-12T13:40:21.831Z,14.50
2018-12-12T13:43:25.401Z,14.53
2018-12-12T13:46:28.937Z,15.03
2018-12-12T13:49:33.432Z,16.10
2018-12-12T13:52:36.906Z,15.67
2018-12-12T13:55:41.513Z,14.07
2018-12-12T13:58:44.962Z,11.03
2018-12-12T14:01:48.388Z,11.30
2018-12-12T14:04:52.127Z,10.67
2018-12-12T14:07:55.647Z,14.23
2018-12-12T14:10:59.461Z,15.60
2018-12-12T14:14:02.953Z,15.33
2018-12-12T14:17:06.662Z,13.73
2018-12-12T14:20:10.328Z,12.93
2018-12-12T14:23:14.882Z,13.67
2018-12-12T14:26:18.508Z,14.07
2018-12-12T14:29:21.967Z,13.97
2018-12-12T14:32:25.821Z,13.90
2018-12-12T14:35:29.401Z,14.37
2018-12-12T14:38:33.904Z,13.93
2018-12-12T14:41:37.329Z,14.77
2018-12-12T14:44:41.022Z,14.70
2018-12-12T14:47:44.545Z,14.90
2018-12-12T14:50:48.029Z,13.73
2018-12-12T14:53:51.724Z,14.40
2018-12-12T14:56:55.326Z,14.40
2018-12-12T14:59:58.981Z,14.40
2018-12-12T15:03:02.835Z,14.33
2018-12-12T15:06:06.598Z,14.27
2018-12-12T15:09:10.322Z,14.50
2018-12-12T15:12:13.937Z,15.63
2018-12-12T15:15:17.577Z,15.67
2018-12-12T15:18:21.524Z,15.63
2018-12-12T15:21:25.852Z,16.43
2018-12-12T15:24:28.943Z,14.73
2018-12-12T15:27:32.647Z,15.47
2018-12-12T15:30:41.082Z,14.63
2018-12-12T15:33:43.619Z,16.70
2018-12-12T15:36:47.126Z,17.90
2018-12-12T15:39:50.768Z,17.33
2018-12-12T15:42:54.435Z,17.10
2018-12-12T15:45:58.077Z,18.00
2018-12-12T15:49:01.675Z,17.37
2018-12-12T15:52:06.309Z,20.27
2018-12-12T15:55:09.944Z,19.70
2018-12-12T15:58:13.536Z,17.67
2018-12-12T16:01:17.326Z,17.60
2018-12-12T16:04:20.989Z,18.80
2018-12-12T16:07:24.700Z,20.00
2018-12-12T16:10:28.269Z,18.53
2018-12-12T16:13:31.815Z,17.17
2018-12-12T16:16:35.445Z,17.37
2018-12-12T16:19:39.113Z,16.67
2018-12-12T16:22:42.754Z,16.77
2018-12-12T16:25:46.368Z,16.40
2018-12-12T16:28:49.975Z,15.87
2018-12-12T16:31:54.616Z,15.80
2018-12-12T16:34:58.327Z,15.90
2018-12-12T16:38:05.616Z,17.70
2018-12-12T16:41:10.248Z,17.93
2018-12-12T16:44:16.313Z,17.37
2018-12-12T16:47:20.165Z,16.70
2018-12-12T16:50:24.725Z,17.20
2018-12-12T16:53:28.425Z,17.50
2018-12-12T16:56:31.867Z,16.67
2018-12-12T16:59:35.372Z,14.77
2018-12-12T17:02:38.840Z,18.20
2018-12-12T17:05:42.444Z,19.93
2018-12-12T17:08:47.755Z,18.17
2018-12-12T17:11:51.300Z,14.87
2018-12-12T17:14:54.895Z,17.53
2018-12-12T17:17:59.584Z,19.73
2018-12-12T17:21:03.327Z,18.20
2018-12-12T17:24:07.037Z,16.13
2018-12-12T17:27:11.274Z,14.77
2018-12-12T17:30:15.002Z,16.17
2018-12-12T17:33:19.004Z,17.80
2018-12-12T17:36:22.542Z,20.50
2018-12-12T17:39:26.211Z,24.27
2018-12-12T17:42:29.779Z,26.23
2018-12-12T17:45:33.602Z,19.60
2018-12-12T17:48:37.014Z,19.20
2018-12-12T17:51:41.753Z,20.77
2018-12-12T17:54:45.261Z,21.00
2018-12-12T17:57:49.230Z,17.47
2018-12-12T18:00:54.186Z,15.17
2018-12-12T18:03:57.879Z,15.07
2018-12-12T18:07:01.311Z,16.57
2018-12-12T18:10:05.311Z,16.37
2018-12-12T18:13:09.904Z,16.30
2018-12-12T18:16:13.746Z,14.83
2018-12-12T18:19:17.409Z,13.60
2018-12-12T18:22:21.771Z,14.13
2018-12-12T18:25:25.319Z,13.77
2018-12-12T18:28:28.875Z,11.93
2018-12-12T18:31:32.593Z,10.90
2018-12-12T18:34:36.407Z,12.50
2018-12-12T18:37:40.001Z,10.77
2018-12-12T18:40:46.044Z,12.57
2018-12-12T18:43:49.464Z,11.10
2018-12-12T18:46:53.973Z,12.10
2018-12-12T18:49:57.536Z,12.03
2018-12-12T18:53:01.271Z,13.90
2018-12-12T18:56:05.760Z,13.90
2018-12-12T18:59:09.346Z,13.40
2018-12-12T19:02:12.901Z,12.43
2018-12-12T19:05:16.609Z,13.87
2018-12-12T19:08:20.340Z,13.50
2018-12-12T19:11:23.960Z,14.07
2018-12-12T19:14:27.792Z,12.93
2018-12-12T19:17:31.363Z,11.80
2018-12-12T19:20:35.100Z,11.30
2018-12-12T19:23:38.983Z,10.63
2018-12-12T19:26:43.118Z,8.60
2018-12-12T19:29:48.451Z,7.13
2018-12-12T19:32:53.034Z,7.57
2018-12-12T19:35:56.813Z,9.23
2018-12-12T19:39:00.284Z,9.70
2018-12-12T19:42:03.733Z,8.57
2018-12-12T19:45:08.051Z,6.90
2018-12-12T19:48:11.723Z,6.83
2018-12-12T19:51:15.432Z,7.27
2018-12-12T19:54:18.826Z,8.03
2018-12-12T19:57:22.359Z,7.70
2018-12-12T20:00:26.155Z,6.70
2018-12-12T20:03:36.145Z,6.50
2018-12-12T20:06:39.701Z,6.17
2018-12-12T20:09:43.241Z,6.53
2018-12-12T20:12:46.717Z,5.63
2018-12-12T20:15:50.248Z,7.93
2018-12-12T20:18:54.240Z,8.03
2018-12-12T20:21:57.704Z,7.30
2018-12-12T20:25:01.464Z,7.43
2018-12-12T20:28:04.935Z,6.27
2018-12-12T20:31:10.007Z,6.47
2018-12-12T20:34:13.405Z,6.20
2018-12-12T20:37:16.873Z,5.50
2018-12-12T20:40:22.306Z,4.83
2018-12-12T20:43:30.050Z,5.33
2018-12-12T20:46:33.948Z,4.93
2018-12-12T20:49:38.107Z,5.47
2018-12-12T20:52:41.789Z,4.97
2018-12-12T20:55:45.371Z,5.07
2018-12-12T20:58:49.036Z,5.13
2018-12-12T21:01:52.834Z,5.03
2018-12-12T21:04:58.523Z,5.13
2018-12-12T21:08:06.123Z,5.27
2018-12-12T21:11:10.474Z,5.73
2018-12-12T21:14:14.041Z,5.70
2018-12-12T21:17:17.755Z,5.37
2018-12-12T21:20:30.463Z,7.40
2018-12-12T21:23:34.729Z,6.17
2018-12-12T21:26:38.941Z,6.00
2018-12-12T21:29:43.534Z,5.90
2018-12-12T21:32:47.162Z,6.20
2018-12-12T21:35:50.568Z,5.60
2018-12-12T21:38:55.032Z,3.97
2018-12-12T21:41:58.427Z,5.10
2018-12-12T21:45:02.007Z,5.00
2018-12-12T21:48:05.720Z,4.70
2018-12-12T21:51:11.179Z,5.07
2018-12-12T21:54:14.658Z,5.60
2018-12-12T21:57:20.085Z,6.60
2018-12-12T22:00:24.590Z,7.03
2018-12-12T22:03:28.378Z,5.73
2018-12-12T22:06:32.378Z,4.87
2018-12-12T22:09:36.066Z,5.27
2018-12-12T22:12:39.781Z,4.87
2018-12-12T22:15:43.478Z,4.60
2018-12-12T22:18:47.074Z,4.63
2018-12-12T22:21:50.646Z,4.30
2018-12-12T22:24:54.256Z,4.50
2018-12-12T22:27:57.897Z,4.73
2018-12-12T22:31:05.268Z,4.10
2018-12-12T22:34:10.844Z,4.03
2018-12-12T22:37:14.372Z,4.13
2018-12-12T22:40:18.068Z,3.87
2018-12-12T22:43:21.619Z,3.87
2018-12-12T22:46:30.747Z,4.57
2018-12-12T22:49:34.715Z,4.27
2018-12-12T22:52:39.390Z,4.03
2018-12-12T22:55:42.241Z,3.77
2018-12-12T22:58:45.946Z,3.37
2018-12-12T23:01:50.461Z,3.90
2018-12-12T23:04:55.091Z,4.10
2018-12-12T23:07:58.704Z,4.20
2018-12-12T23:11:04.410Z,4.40
2018-12-12T23:14:08.118Z,4.17
2018-12-12T23:17:12.672Z,4.13
2018-12-12T23:20:16.492Z,4.10
2018-12-12T23:23:24.335Z,4.03
2018-12-12T23:26:28.135Z,4.47
2018-12-12T23:29:33.742Z,4.37
2018-12-12T23:32:37.330Z,4.20
2018-12-12T23:35:44.286Z,4.90
2018-12-12T23:38:49.114Z,4.33
2018-12-12T23:41:53.722Z,4.93
2018-12-12T23:45:00.988Z,4.00
2018-12-12T23:48:07.912Z,4.53
2018-12-12T23:51:13.525Z,4.60
2018-12-12T23:54:17.195Z,4.80
2018-12-12T23:57:20.731Z,4.67
